createdAt,value
2023-04-23T00:01:10.711Z,9.93
2023-04-23T00:05:13.524Z,9.86
2023-04-23T00:09:16.979Z,9.96
2023-04-23T00:13:19.818Z,10.06
2023-04-23T00:17:21.995Z,10.12
2023-04-23T00:21:24.480Z,10.29
2023-04-23T00:25:26.669Z,10.38
2023-04-23T00:29:28.674Z,10.45
2023-04-23T00:33:30.992Z,10.45
2023-04-23T00:37:33.064Z,10.51
2023-04-23T00:41:35.385Z,10.52
2023-04-23T00:45:37.584Z,10.42
2023-04-23T00:49:41.984Z,10.27
2023-04-23T00:53:44.179Z,10.16
2023-04-23T00:57:46.634Z,10.30
2023-04-23T01:01:48.832Z,10.03
2023-04-23T01:05:51.281Z,9.76
2023-04-23T01:09:56.465Z,9.55
2023-04-23T01:13:59.626Z,9.75
2023-04-23T01:18:01.955Z,9.84
2023-04-23T01:22:18.461Z,9.93
2023-04-23T01:26:21.907Z,9.98
2023-04-23T01:30:30.689Z,10.00
2023-04-23T01:34:34.960Z,10.01
2023-04-23T01:38:38.779Z,10.03
2023-04-23T01:42:41.481Z,9.95
2023-04-23T01:46:43.868Z,9.95
2023-04-23T01:50:46.403Z,9.95
2023-04-23T01:54:48.947Z,9.94
2023-04-23T01:58:52.028Z,9.59
2023-04-23T02:02:54.187Z,9.35
2023-04-23T02:06:59.377Z,9.02
2023-04-23T02:11:05.233Z,8.70
2023-04-23T02:15:09.746Z,8.57
2023-04-23T02:19:14.109Z,8.55
2023-04-23T02:23:18.035Z,8.49
2023-04-23T02:27:20.853Z,8.56
2023-04-23T02:31:23.634Z,8.48
2023-04-23T02:35:26.302Z,8.56
2023-04-23T02:39:28.374Z,8.43
2023-04-23T02:43:30.533Z,8.34
2023-04-23T02:47:32.599Z,8.26
2023-04-23T02:51:34.948Z,8.20
2023-04-23T02:55:37.043Z,8.07
2023-04-23T02:59:39.410Z,8.11
2023-04-23T03:03:41.993Z,8.34
2023-04-23T03:07:44.134Z,8.53
2023-04-23T03:11:46.273Z,8.49
2023-04-23T03:15:51.430Z,8.60
2023-04-23T03:19:53.684Z,8.66
2023-04-23T03:23:57.473Z,8.69
2023-04-23T03:27:59.631Z,8.67
2023-04-23T03:32:02.221Z,8.69
2023-04-23T03:36:05.723Z,8.73
2023-04-23T03:40:10.700Z,8.69
2023-04-23T03:44:16.121Z,8.61
2023-04-23T03:48:21.785Z,8.58
2023-04-23T03:52:24.619Z,8.57
2023-04-23T03:56:32.852Z,8.58
2023-04-23T04:01:04.465Z,8.51
2023-04-23T04:05:09.627Z,8.38
2023-04-23T04:09:11.948Z,8.47
2023-04-23T04:13:16.250Z,8.35
2023-04-23T04:17:18.389Z,7.99
2023-04-23T04:21:20.784Z,7.93
2023-04-23T04:25:24.316Z,7.89
2023-04-23T04:29:26.924Z,7.97
2023-04-23T04:33:29.280Z,8.19
2023-04-23T04:37:32.239Z,8.17
2023-04-23T04:41:34.390Z,7.97
2023-04-23T04:45:36.437Z,8.11
2023-04-23T04:49:38.522Z,8.14
2023-04-23T04:53:40.809Z,8.21
2023-04-23T04:57:42.907Z,8.10
2023-04-23T05:01:45.192Z,8.27
2023-04-23T05:05:48.723Z,8.55
2023-04-23T05:09:50.808Z,8.66
2023-04-23T05:13:52.903Z,8.86
2023-04-23T05:17:55.197Z,8.83
2023-04-23T05:21:57.908Z,9.05
2023-04-23T05:26:00.147Z,9.34
2023-04-23T05:30:03.326Z,9.45
2023-04-23T05:34:07.795Z,9.68
2023-04-23T05:38:10.505Z,9.75
2023-04-23T05:42:13.310Z,9.87
2023-04-23T05:46:15.453Z,9.99
2023-04-23T05:50:18.160Z,10.17
2023-04-23T05:54:20.778Z,10.32
2023-04-23T05:58:23.469Z,10.36
2023-04-23T06:02:25.843Z,10.56
2023-04-23T06:06:28.141Z,10.80
2023-04-23T06:10:30.402Z,11.02
2023-04-23T06:14:32.481Z,11.23
2023-04-23T06:18:35.765Z,11.48
2023-04-23T06:22:38.205Z,11.63
2023-04-23T06:26:40.530Z,11.90
2023-04-23T06:30:49.456Z,12.10
2023-04-23T06:35:00.791Z,12.29
2023-04-23T06:39:04.005Z,12.46
2023-04-23T06:43:08.129Z,12.57
2023-04-23T06:47:42.405Z,12.70
2023-04-23T06:51:44.689Z,12.83
2023-04-23T06:55:47.152Z,12.94
2023-04-23T06:59:49.626Z,13.08
2023-04-23T07:03:54.681Z,12.88
2023-04-23T07:07:56.942Z,13.02
2023-04-23T07:11:59.442Z,13.19
2023-04-23T07:16:01.484Z,13.43
2023-04-23T07:20:08.793Z,13.25
2023-04-23T07:24:11.379Z,13.43
2023-04-23T07:28:13.523Z,13.57
2023-04-23T07:32:16.257Z,13.90
2023-04-23T07:36:18.619Z,14.17
2023-04-23T07:40:22.498Z,14.34
2023-04-23T07:44:26.052Z,14.58
2023-04-23T07:48:28.159Z,14.73
2023-04-23T07:52:30.967Z,14.95
2023-04-23T07:56:33.228Z,15.10
2023-04-23T08:00:36.348Z,15.20
2023-04-23T08:04:38.763Z,15.26
2023-04-23T08:08:41.277Z,15.46
2023-04-23T08:12:44.536Z,15.62
2023-04-23T08:16:46.843Z,15.87
2023-04-23T08:20:50.232Z,16.05
2023-04-23T08:24:52.586Z,16.06
2023-04-23T08:28:55.711Z,16.33
2023-04-23T08:32:59.753Z,16.52
2023-04-23T08:37:04.800Z,16.81
2023-04-23T08:41:12.071Z,17.06
2023-04-23T08:45:16.392Z,17.29
2023-04-23T08:49:19.163Z,17.45
2023-04-23T08:53:25.992Z,17.47
2023-04-23T08:57:29.014Z,17.54
2023-04-23T09:01:31.960Z,17.76
2023-04-23T09:05:35.188Z,17.89
2023-04-23T09:09:40.954Z,18.01
2023-04-23T09:13:43.699Z,18.06
2023-04-23T09:17:47.287Z,18.11
2023-04-23T09:21:51.569Z,18.07
2023-04-23T09:25:54.132Z,18.31
2023-04-23T09:29:57.514Z,18.47
2023-04-23T09:34:00.386Z,18.68
2023-04-23T09:38:08.226Z,18.93
2023-04-23T09:42:13.807Z,19.13
2023-04-23T09:46:16.210Z,19.28
2023-04-23T09:50:21.115Z,19.45
2023-04-23T09:54:24.600Z,19.75
2023-04-23T09:58:28.870Z,19.89
2023-04-23T10:02:43.629Z,20.08
2023-04-23T10:07:13.825Z,20.23
2023-04-23T10:11:20.777Z,20.46
2023-04-23T10:15:25.522Z,20.68
2023-04-23T10:19:29.216Z,20.97
2023-04-23T10:23:33.489Z,20.94
2023-04-23T10:27:51.138Z,20.92
2023-04-23T10:31:57.061Z,21.13
2023-04-23T10:35:59.843Z,21.25
2023-04-23T10:40:09.843Z,21.28
2023-04-23T10:44:16.042Z,21.33
2023-04-23T10:48:18.645Z,21.39
2023-04-23T10:52:24.409Z,21.38
2023-04-23T10:56:28.649Z,21.61
2023-04-23T11:00:51.685Z,21.84
2023-04-23T11:04:57.212Z,21.89
2023-04-23T11:09:00.227Z,22.14
2023-04-23T11:13:24.975Z,22.19
2023-04-23T11:17:33.612Z,22.57
2023-04-23T11:21:54.853Z,22.95
2023-04-23T11:25:57.833Z,23.11
2023-04-23T11:30:00.369Z,23.20
2023-04-23T11:34:02.901Z,23.28
2023-04-23T11:38:09.508Z,23.73
2023-04-23T11:42:13.363Z,23.83
2023-04-23T11:46:17.084Z,23.81
2023-04-23T11:50:20.784Z,23.91
2023-04-23T11:54:27.658Z,23.52
2023-04-23T11:58:30.016Z,23.71
2023-04-23T12:02:32.376Z,24.02
2023-04-23T12:06:34.648Z,24.25
2023-04-23T12:10:50.321Z,24.84
2023-04-23T12:15:04.057Z,24.93
2023-04-23T12:19:08.705Z,25.05
2023-04-23T12:23:10.908Z,25.26
2023-04-23T12:27:20.365Z,25.31
2023-04-23T12:31:30.959Z,25.62
2023-04-23T12:36:00.982Z,25.78
2023-04-23T12:40:07.150Z,25.79
2023-04-23T12:44:09.188Z,25.83
2023-04-23T12:48:12.398Z,25.73
2023-04-23T12:52:14.509Z,25.74
2023-04-23T12:56:16.684Z,25.67
2023-04-23T13:00:18.916Z,25.85
2023-04-23T13:04:21.111Z,25.97
2023-04-23T13:08:23.110Z,25.73
2023-04-23T13:12:25.869Z,25.67
2023-04-23T13:16:28.082Z,25.75
2023-04-23T13:20:30.319Z,25.91
2023-04-23T13:24:32.655Z,25.63
2023-04-23T13:28:36.290Z,25.47
2023-04-23T13:32:38.374Z,25.41
2023-04-23T13:36:43.233Z,25.59
2023-04-23T13:40:45.318Z,25.88
2023-04-23T13:44:47.452Z,25.79
2023-04-23T13:48:49.546Z,25.66
2023-04-23T13:52:51.690Z,25.78
2023-04-23T13:56:57.295Z,25.66
2023-04-23T14:00:59.465Z,25.63
2023-04-23T14:05:03.838Z,25.46
2023-04-23T14:09:06.020Z,25.41
2023-04-23T14:13:08.228Z,25.34
2023-04-23T14:17:10.345Z,25.17
2023-04-23T14:21:14.308Z,25.13
2023-04-23T14:25:41.425Z,24.71
2023-04-23T14:29:50.824Z,24.52
2023-04-23T14:33:53.120Z,24.38
2023-04-23T14:37:55.443Z,24.22
2023-04-23T14:41:57.534Z,24.39
2023-04-23T14:45:59.703Z,24.31
2023-04-23T14:50:01.968Z,24.40
2023-04-23T14:54:04.973Z,24.28
2023-04-23T14:58:08.403Z,24.50
2023-04-23T15:02:12.320Z,24.18
2023-04-23T15:06:14.970Z,24.02
2023-04-23T15:10:17.195Z,23.89
2023-04-23T15:14:31.249Z,24.21
2023-04-23T15:18:34.446Z,24.11
2023-04-23T15:22:36.753Z,23.90
2023-04-23T15:26:39.643Z,23.27
2023-04-23T15:30:46.056Z,22.86
2023-04-23T15:34:48.432Z,22.65
2023-04-23T15:38:50.704Z,22.44
2023-04-23T15:42:53.544Z,22.25
2023-04-23T15:46:55.924Z,22.17
2023-04-23T15:50:58.208Z,22.09
2023-04-23T15:55:01.057Z,22.02
2023-04-23T15:59:03.271Z,21.73
2023-04-23T16:03:06.727Z,21.42
2023-04-23T16:07:09.626Z,21.17
2023-04-23T16:11:13.509Z,20.98
2023-04-23T16:15:15.765Z,20.85
2023-04-23T16:19:18.003Z,20.74
2023-04-23T16:23:20.691Z,20.63
2023-04-23T16:27:23.570Z,20.59
2023-04-23T16:31:25.844Z,20.59
2023-04-23T16:35:28.162Z,20.40
2023-04-23T16:39:30.542Z,20.43
2023-04-23T16:43:32.678Z,20.44
2023-04-23T16:47:35.471Z,20.31
2023-04-23T16:51:37.692Z,20.13
2023-04-23T16:55:39.981Z,20.05
2023-04-23T16:59:42.937Z,19.93
2023-04-23T17:03:47.837Z,19.78
2023-04-23T17:07:53.496Z,19.64
2023-04-23T17:11:56.804Z,19.47
2023-04-23T17:15:59.673Z,19.45
2023-04-23T17:20:03.953Z,19.40
2023-04-23T17:24:06.344Z,19.47
2023-04-23T17:28:08.646Z,19.28
2023-04-23T17:32:10.799Z,19.05
2023-04-23T17:36:13.417Z,19.03
2023-04-23T17:40:16.148Z,19.01
2023-04-23T17:44:18.786Z,18.75
2023-04-23T17:48:23.100Z,18.73
2023-04-23T17:52:25.292Z,18.75
2023-04-23T17:56:27.442Z,18.65
2023-04-23T18:00:29.763Z,18.48
2023-04-23T18:04:33.793Z,18.06
2023-04-23T18:08:36.523Z,17.89
2023-04-23T18:12:39.569Z,17.77
2023-04-23T18:16:41.788Z,17.76
2023-04-23T18:20:45.215Z,17.60
2023-04-23T18:24:47.783Z,17.65
2023-04-23T18:28:50.107Z,17.61
2023-04-23T18:33:19.694Z,17.54
2023-04-23T18:37:30.966Z,17.36
2023-04-23T18:41:34.681Z,17.32
2023-04-23T18:45:37.057Z,17.29
2023-04-23T18:49:45.865Z,17.09
2023-04-23T18:53:50.036Z,16.87
2023-04-23T18:57:52.257Z,16.66
2023-04-23T19:01:56.283Z,16.71
2023-04-23T19:05:58.915Z,16.33
2023-04-23T19:10:01.637Z,16.45
2023-04-23T19:14:05.316Z,16.33
2023-04-23T19:18:08.085Z,16.57
2023-04-23T19:22:13.242Z,16.50
2023-04-23T19:26:17.282Z,16.51
2023-04-23T19:30:22.001Z,16.33
2023-04-23T19:34:27.034Z,16.38
2023-04-23T19:38:30.928Z,16.41
2023-04-23T19:42:35.074Z,16.35
2023-04-23T19:46:37.365Z,16.29
2023-04-23T19:50:39.870Z,16.33
2023-04-23T19:54:43.990Z,16.24
2023-04-23T19:58:46.938Z,16.13
2023-04-23T20:02:49.903Z,16.12
2023-04-23T20:06:53.720Z,16.11
2023-04-23T20:10:58.242Z,16.06
2023-04-23T20:15:02.333Z,15.96
2023-04-23T20:19:05.640Z,15.97
2023-04-23T20:23:08.562Z,15.94
2023-04-23T20:27:11.275Z,15.78
2023-04-23T20:31:14.696Z,15.77
2023-04-23T20:35:16.737Z,15.70
2023-04-23T20:39:24.107Z,15.58
2023-04-23T20:43:26.894Z,15.50
2023-04-23T20:47:29.384Z,15.42
2023-04-23T20:51:34.893Z,15.36
2023-04-23T20:55:37.019Z,15.19
2023-04-23T20:59:39.599Z,15.12
2023-04-23T21:03:42.006Z,15.11
2023-04-23T21:07:44.587Z,15.10
2023-04-23T21:11:46.856Z,15.01
2023-04-23T21:15:49.254Z,14.97
2023-04-23T21:19:51.800Z,14.97
2023-04-23T21:23:54.108Z,14.90
2023-04-23T21:27:57.108Z,14.73
2023-04-23T21:31:59.379Z,14.70
2023-04-23T21:36:01.569Z,14.70
2023-04-23T21:40:04.874Z,14.66
2023-04-23T21:44:11.137Z,14.66
2023-04-23T21:48:15.178Z,14.66
2023-04-23T21:52:17.492Z,14.60
2023-04-23T21:56:19.712Z,14.60
2023-04-23T22:00:23.874Z,14.43
2023-04-23T22:04:27.923Z,14.35
2023-04-23T22:08:33.096Z,14.44
2023-04-23T22:12:35.307Z,14.35
2023-04-23T22:16:37.951Z,14.12
2023-04-23T22:20:40.211Z,14.26
2023-04-23T22:24:42.295Z,14.35
2023-04-23T22:28:44.762Z,14.36
2023-04-23T22:32:47.224Z,14.39
2023-04-23T22:36:49.285Z,14.38
2023-04-23T22:40:51.393Z,14.22
2023-04-23T22:44:53.481Z,14.08
2023-04-23T22:48:56.092Z,14.09
2023-04-23T22:52:58.252Z,13.93
2023-04-23T22:57:01.178Z,13.81
2023-04-23T23:01:03.618Z,13.67
2023-04-23T23:05:13.208Z,13.70
2023-04-23T23:09:18.116Z,13.75
2023-04-23T23:13:20.253Z,13.70
2023-04-23T23:17:22.382Z,13.60
2023-04-23T23:21:25.188Z,13.62
2023-04-23T23:25:27.324Z,13.62
2023-04-23T23:29:29.383Z,13.64
2023-04-23T23:33:31.815Z,13.66
2023-04-23T23:37:34.244Z,13.69
2023-04-23T23:41:36.473Z,13.71
2023-04-23T23:45:39.031Z,13.76
2023-04-23T23:49:41.965Z,13.85
2023-04-23T23:53:44.301Z,13.93
2023-04-23T23:57:46.491Z,13.96
